sensor_id;sensor_type;location;lat;lon;timestamp;P1;durP1;ratioP1;P2;durP2;ratioP2
21519;SDS011;10921;53.614;9.882;2023-07-13T00:01:48;37.70;;;34.03;;
21519;SDS011;10921;53.614;9.882;2023-07-13T00:04:16;38.10;;;34.30;;
21519;SDS011;10921;53.614;9.882;2023-07-13T00:06:45;37.40;;;33.97;;
21519;SDS011;10921;53.614;9.882;2023-07-13T00:09:12;37.00;;;33.58;;
21519;SDS011;10921;53.614;9.882;2023-07-13T00:11:43;38.92;;;33.80;;
21519;SDS011;10921;53.614;9.882;2023-07-13T00:16:41;36.75;;;32.78;;
21519;SDS011;10921;53.614;9.882;2023-07-13T00:19:10;36.83;;;33.30;;
21519;SDS011;10921;53.614;9.882;2023-07-13T00:21:38;37.17;;;33.60;;
21519;SDS011;10921;53.614;9.882;2023-07-13T00:24:06;36.13;;;32.80;;
21519;SDS011;10921;53.614;9.882;2023-07-13T00:26:33;37.33;;;33.10;;
21519;SDS011;10921;53.614;9.882;2023-07-13T00:29:00;36.75;;;33.22;;
21519;SDS011;10921;53.614;9.882;2023-07-13T00:31:27;37.08;;;33.40;;
21519;SDS011;10921;53.614;9.882;2023-07-13T00:33:53;38.15;;;34.15;;
21519;SDS011;10921;53.614;9.882;2023-07-13T00:36:20;37.17;;;33.88;;
21519;SDS011;10921;53.614;9.882;2023-07-13T00:38:47;37.05;;;33.50;;
21519;SDS011;10921;53.614;9.882;2023-07-13T00:41:13;38.10;;;34.33;;
21519;SDS011;10921;53.614;9.882;2023-07-13T00:43:40;38.53;;;35.00;;
21519;SDS011;10921;53.614;9.882;2023-07-13T00:46:23;38.00;;;34.40;;
21519;SDS011;10921;53.614;9.882;2023-07-13T00:48:51;37.80;;;34.38;;
21519;SDS011;10921;53.614;9.882;2023-07-13T00:51:21;37.92;;;34.10;;
21519;SDS011;10921;53.614;9.882;2023-07-13T00:53:51;38.42;;;34.75;;
21519;SDS011;10921;53.614;9.882;2023-07-13T00:56:21;38.05;;;34.63;;
21519;SDS011;10921;53.614;9.882;2023-07-13T00:58:47;38.10;;;34.45;;
21519;SDS011;10921;53.614;9.882;2023-07-13T01:01:14;38.65;;;34.60;;
21519;SDS011;10921;53.614;9.882;2023-07-13T01:03:40;38.17;;;34.42;;
21519;SDS011;10921;53.614;9.882;2023-07-13T01:06:07;37.38;;;33.85;;
21519;SDS011;10921;53.614;9.882;2023-07-13T01:08:35;37.00;;;33.80;;
21519;SDS011;10921;53.614;9.882;2023-07-13T01:11:02;37.70;;;34.10;;
21519;SDS011;10921;53.614;9.882;2023-07-13T01:13:28;36.70;;;33.17;;
21519;SDS011;10921;53.614;9.882;2023-07-13T01:15:55;37.95;;;33.83;;
21519;SDS011;10921;53.614;9.882;2023-07-13T01:18:26;37.88;;;34.10;;
21519;SDS011;10921;53.614;9.882;2023-07-13T01:21:01;38.35;;;34.33;;
21519;SDS011;10921;53.614;9.882;2023-07-13T01:23:30;38.20;;;34.40;;
21519;SDS011;10921;53.614;9.882;2023-07-13T01:25:58;39.60;;;35.72;;
21519;SDS011;10921;53.614;9.882;2023-07-13T01:28:25;39.08;;;35.33;;
21519;SDS011;10921;53.614;9.882;2023-07-13T01:30:53;39.30;;;35.47;;
21519;SDS011;10921;53.614;9.882;2023-07-13T01:33:21;39.35;;;35.40;;
21519;SDS011;10921;53.614;9.882;2023-07-13T01:35:48;39.83;;;35.70;;
21519;SDS011;10921;53.614;9.882;2023-07-13T01:38:16;40.70;;;36.70;;
21519;SDS011;10921;53.614;9.882;2023-07-13T01:40:44;39.42;;;35.60;;
21519;SDS011;10921;53.614;9.882;2023-07-13T01:43:11;40.83;;;36.75;;
21519;SDS011;10921;53.614;9.882;2023-07-13T01:45:37;40.58;;;36.58;;
21519;SDS011;10921;53.614;9.882;2023-07-13T01:48:04;40.97;;;37.15;;
21519;SDS011;10921;53.614;9.882;2023-07-13T01:50:33;42.38;;;37.63;;
21519;SDS011;10921;53.614;9.882;2023-07-13T01:53:00;42.17;;;37.70;;
21519;SDS011;10921;53.614;9.882;2023-07-13T01:55:28;40.20;;;36.17;;
21519;SDS011;10921;53.614;9.882;2023-07-13T01:57:55;41.53;;;37.03;;
21519;SDS011;10921;53.614;9.882;2023-07-13T02:00:22;41.05;;;37.15;;
21519;SDS011;10921;53.614;9.882;2023-07-13T02:02:49;41.75;;;37.72;;
21519;SDS011;10921;53.614;9.882;2023-07-13T02:05:16;42.00;;;37.65;;
21519;SDS011;10921;53.614;9.882;2023-07-13T02:07:43;42.88;;;38.53;;
21519;SDS011;10921;53.614;9.882;2023-07-13T02:10:10;42.65;;;38.20;;
21519;SDS011;10921;53.614;9.882;2023-07-13T02:12:37;42.55;;;37.90;;
21519;SDS011;10921;53.614;9.882;2023-07-13T02:15:05;45.28;;;38.80;;
21519;SDS011;10921;53.614;9.882;2023-07-13T02:17:32;42.33;;;38.05;;
21519;SDS011;10921;53.614;9.882;2023-07-13T02:19:59;43.50;;;39.03;;
21519;SDS011;10921;53.614;9.882;2023-07-13T02:22:26;42.45;;;38.35;;
21519;SDS011;10921;53.614;9.882;2023-07-13T02:24:52;43.35;;;39.03;;
21519;SDS011;10921;53.614;9.882;2023-07-13T02:27:19;42.55;;;38.55;;
21519;SDS011;10921;53.614;9.882;2023-07-13T02:29:45;44.00;;;39.55;;
21519;SDS011;10921;53.614;9.882;2023-07-13T02:32:12;43.03;;;38.72;;
21519;SDS011;10921;53.614;9.882;2023-07-13T02:34:40;45.13;;;40.33;;
21519;SDS011;10921;53.614;9.882;2023-07-13T02:37:07;43.53;;;38.85;;
21519;SDS011;10921;53.614;9.882;2023-07-13T02:39:33;43.17;;;38.85;;
21519;SDS011;10921;53.614;9.882;2023-07-13T02:42:00;43.38;;;39.08;;
21519;SDS011;10921;53.614;9.882;2023-07-13T02:44:26;43.60;;;39.30;;
21519;SDS011;10921;53.614;9.882;2023-07-13T02:46:53;43.45;;;39.15;;
21519;SDS011;10921;53.614;9.882;2023-07-13T02:49:20;44.35;;;39.95;;
21519;SDS011;10921;53.614;9.882;2023-07-13T02:51:46;44.60;;;39.97;;
21519;SDS011;10921;53.614;9.882;2023-07-13T02:54:14;44.55;;;40.15;;
21519;SDS011;10921;53.614;9.882;2023-07-13T02:56:40;43.05;;;38.67;;
21519;SDS011;10921;53.614;9.882;2023-07-13T02:59:07;46.83;;;40.95;;
21519;SDS011;10921;53.614;9.882;2023-07-13T03:01:34;43.97;;;39.90;;
21519;SDS011;10921;53.614;9.882;2023-07-13T03:04:01;45.10;;;40.40;;
21519;SDS011;10921;53.614;9.882;2023-07-13T03:06:30;44.22;;;39.55;;
21519;SDS011;10921;53.614;9.882;2023-07-13T03:08:57;45.78;;;40.92;;
21519;SDS011;10921;53.614;9.882;2023-07-13T03:11:24;45.50;;;40.50;;
21519;SDS011;10921;53.614;9.882;2023-07-13T03:13:51;44.40;;;40.10;;
21519;SDS011;10921;53.614;9.882;2023-07-13T03:16:18;44.28;;;40.05;;
21519;SDS011;10921;53.614;9.882;2023-07-13T03:18:45;44.70;;;40.17;;
21519;SDS011;10921;53.614;9.882;2023-07-13T03:21:12;44.30;;;39.80;;
21519;SDS011;10921;53.614;9.882;2023-07-13T03:23:40;43.15;;;39.30;;
21519;SDS011;10921;53.614;9.882;2023-07-13T03:26:08;43.90;;;39.58;;
21519;SDS011;10921;53.614;9.882;2023-07-13T03:31:03;44.08;;;39.95;;
21519;SDS011;10921;53.614;9.882;2023-07-13T03:33:32;43.67;;;39.50;;
21519;SDS011;10921;53.614;9.882;2023-07-13T03:35:59;42.75;;;38.90;;
21519;SDS011;10921;53.614;9.882;2023-07-13T03:38:26;44.33;;;40.13;;
21519;SDS011;10921;53.614;9.882;2023-07-13T03:40:52;43.97;;;39.85;;
21519;SDS011;10921;53.614;9.882;2023-07-13T03:43:19;45.33;;;39.80;;
21519;SDS011;10921;53.614;9.882;2023-07-13T03:45:46;42.78;;;38.78;;
21519;SDS011;10921;53.614;9.882;2023-07-13T03:48:13;44.50;;;40.30;;
21519;SDS011;10921;53.614;9.882;2023-07-13T03:50:40;44.63;;;40.00;;
21519;SDS011;10921;53.614;9.882;2023-07-13T03:53:07;43.67;;;39.03;;
21519;SDS011;10921;53.614;9.882;2023-07-13T03:55:34;42.60;;;38.65;;
21519;SDS011;10921;53.614;9.882;2023-07-13T03:58:25;43.78;;;39.38;;
21519;SDS011;10921;53.614;9.882;2023-07-13T04:01:00;42.47;;;38.28;;
21519;SDS011;10921;53.614;9.882;2023-07-13T04:03:29;42.33;;;38.13;;
21519;SDS011;10921;53.614;9.882;2023-07-13T04:05:59;44.00;;;39.50;;
21519;SDS011;10921;53.614;9.882;2023-07-13T04:08:27;43.03;;;38.95;;
21519;SDS011;10921;53.614;9.882;2023-07-13T04:10:54;43.53;;;39.15;;
21519;SDS011;10921;53.614;9.882;2023-07-13T04:13:22;44.03;;;39.03;;
21519;SDS011;10921;53.614;9.882;2023-07-13T04:15:49;53.63;;;38.67;;
21519;SDS011;10921;53.614;9.882;2023-07-13T04:18:16;41.08;;;36.90;;
21519;SDS011;10921;53.614;9.882;2023-07-13T04:20:42;41.05;;;36.78;;
21519;SDS011;10921;53.614;9.882;2023-07-13T04:23:09;41.17;;;37.00;;
21519;SDS011;10921;53.614;9.882;2023-07-13T04:25:36;42.78;;;37.55;;
21519;SDS011;10921;53.614;9.882;2023-07-13T04:28:03;43.33;;;36.60;;
21519;SDS011;10921;53.614;9.882;2023-07-13T04:30:31;42.58;;;37.63;;
21519;SDS011;10921;53.614;9.882;2023-07-13T04:32:57;42.33;;;37.80;;
21519;SDS011;10921;53.614;9.882;2023-07-13T04:35:24;41.13;;;36.92;;
21519;SDS011;10921;53.614;9.882;2023-07-13T04:37:50;41.28;;;36.92;;
21519;SDS011;10921;53.614;9.882;2023-07-13T04:40:17;43.53;;;37.67;;
21519;SDS011;10921;53.614;9.882;2023-07-13T04:42:44;41.70;;;37.47;;
21519;SDS011;10921;53.614;9.882;2023-07-13T04:45:12;41.50;;;37.70;;
21519;SDS011;10921;53.614;9.882;2023-07-13T04:47:40;41.97;;;37.70;;
21519;SDS011;10921;53.614;9.882;2023-07-13T04:50:08;47.92;;;38.85;;
21519;SDS011;10921;53.614;9.882;2023-07-13T04:52:37;42.28;;;37.88;;
21519;SDS011;10921;53.614;9.882;2023-07-13T04:55:03;41.22;;;37.33;;
21519;SDS011;10921;53.614;9.882;2023-07-13T04:57:31;41.90;;;37.53;;
21519;SDS011;10921;53.614;9.882;2023-07-13T04:59:57;41.08;;;37.17;;
21519;SDS011;10921;53.614;9.882;2023-07-13T05:02:27;40.63;;;36.67;;
21519;SDS011;10921;53.614;9.882;2023-07-13T05:04:54;43.40;;;37.78;;
21519;SDS011;10921;53.614;9.882;2023-07-13T05:07:21;40.92;;;36.97;;
21519;SDS011;10921;53.614;9.882;2023-07-13T05:09:48;49.95;;;37.55;;
21519;SDS011;10921;53.614;9.882;2023-07-13T05:12:14;39.00;;;35.63;;
21519;SDS011;10921;53.614;9.882;2023-07-13T05:14:40;41.83;;;36.40;;
21519;SDS011;10921;53.614;9.882;2023-07-13T05:17:07;48.10;;;36.33;;
21519;SDS011;10921;53.614;9.882;2023-07-13T05:19:33;43.22;;;35.15;;
21519;SDS011;10921;53.614;9.882;2023-07-13T05:22:00;38.83;;;34.42;;
21519;SDS011;10921;53.614;9.882;2023-07-13T05:24:27;37.45;;;33.20;;
21519;SDS011;10921;53.614;9.882;2023-07-13T05:26:54;39.67;;;33.28;;
21519;SDS011;10921;53.614;9.882;2023-07-13T05:29:20;34.92;;;31.85;;
21519;SDS011;10921;53.614;9.882;2023-07-13T05:31:48;34.95;;;31.27;;
21519;SDS011;10921;53.614;9.882;2023-07-13T05:34:15;33.90;;;30.60;;
21519;SDS011;10921;53.614;9.882;2023-07-13T05:36:42;35.35;;;31.65;;
21519;SDS011;10921;53.614;9.882;2023-07-13T05:39:08;36.08;;;29.40;;
21519;SDS011;10921;53.614;9.882;2023-07-13T05:41:35;38.58;;;28.10;;
21519;SDS011;10921;53.614;9.882;2023-07-13T05:44:02;39.13;;;28.15;;
21519;SDS011;10921;53.614;9.882;2023-07-13T05:46:28;30.20;;;27.13;;
21519;SDS011;10921;53.614;9.882;2023-07-13T05:48:55;33.78;;;26.13;;
21519;SDS011;10921;53.614;9.882;2023-07-13T05:51:22;30.25;;;24.25;;
21519;SDS011;10921;53.614;9.882;2023-07-13T05:53:48;30.50;;;25.05;;
21519;SDS011;10921;53.614;9.882;2023-07-13T05:56:15;33.58;;;24.00;;
21519;SDS011;10921;53.614;9.882;2023-07-13T05:58:42;31.50;;;21.95;;
21519;SDS011;10921;53.614;9.882;2023-07-13T06:01:12;27.75;;;20.90;;
21519;SDS011;10921;53.614;9.882;2023-07-13T06:03:41;30.23;;;19.60;;
21519;SDS011;10921;53.614;9.882;2023-07-13T06:06:08;31.13;;;19.08;;
21519;SDS011;10921;53.614;9.882;2023-07-13T06:08:36;31.05;;;18.23;;
21519;SDS011;10921;53.614;9.882;2023-07-13T06:11:04;23.02;;;17.60;;
21519;SDS011;10921;53.614;9.882;2023-07-13T06:13:32;18.60;;;16.30;;
21519;SDS011;10921;53.614;9.882;2023-07-13T06:16:00;30.25;;;16.48;;
21519;SDS011;10921;53.614;9.882;2023-07-13T06:18:27;26.15;;;16.55;;
21519;SDS011;10921;53.614;9.882;2023-07-13T06:20:53;27.42;;;15.48;;
21519;SDS011;10921;53.614;9.882;2023-07-13T06:23:20;21.85;;;15.95;;
21519;SDS011;10921;53.614;9.882;2023-07-13T06:25:46;27.88;;;15.88;;
21519;SDS011;10921;53.614;9.882;2023-07-13T06:28:12;29.08;;;16.27;;
21519;SDS011;10921;53.614;9.882;2023-07-13T06:30:39;29.05;;;16.33;;
21519;SDS011;10921;53.614;9.882;2023-07-13T06:33:05;24.45;;;15.48;;
21519;SDS011;10921;53.614;9.882;2023-07-13T06:35:33;27.40;;;15.85;;
21519;SDS011;10921;53.614;9.882;2023-07-13T06:37:59;25.55;;;16.17;;
21519;SDS011;10921;53.614;9.882;2023-07-13T06:40:26;28.60;;;16.00;;
21519;SDS011;10921;53.614;9.882;2023-07-13T06:42:55;27.60;;;14.98;;
21519;SDS011;10921;53.614;9.882;2023-07-13T06:45:21;29.63;;;14.13;;
21519;SDS011;10921;53.614;9.882;2023-07-13T06:47:48;23.05;;;14.48;;
21519;SDS011;10921;53.614;9.882;2023-07-13T06:50:15;24.90;;;15.13;;
21519;SDS011;10921;53.614;9.882;2023-07-13T06:52:42;24.80;;;15.00;;
21519;SDS011;10921;53.614;9.882;2023-07-13T06:55:08;25.42;;;14.85;;
21519;SDS011;10921;53.614;9.882;2023-07-13T06:57:35;22.02;;;14.27;;
21519;SDS011;10921;53.614;9.882;2023-07-13T07:00:01;26.70;;;14.25;;
21519;SDS011;10921;53.614;9.882;2023-07-13T07:02:28;26.15;;;14.05;;
21519;SDS011;10921;53.614;9.882;2023-07-13T07:04:55;24.33;;;13.45;;
21519;SDS011;10921;53.614;9.882;2023-07-13T07:07:23;24.15;;;14.35;;
21519;SDS011;10921;53.614;9.882;2023-07-13T07:09:50;25.10;;;13.85;;
21519;SDS011;10921;53.614;9.882;2023-07-13T07:12:17;23.98;;;13.75;;
21519;SDS011;10921;53.614;9.882;2023-07-13T07:14:43;20.23;;;13.57;;
21519;SDS011;10921;53.614;9.882;2023-07-13T07:17:10;23.20;;;13.25;;
21519;SDS011;10921;53.614;9.882;2023-07-13T07:19:37;21.05;;;13.93;;
21519;SDS011;10921;53.614;9.882;2023-07-13T07:22:03;23.73;;;13.25;;
21519;SDS011;10921;53.614;9.882;2023-07-13T07:24:30;24.65;;;14.13;;
21519;SDS011;10921;53.614;9.882;2023-07-13T07:26:56;19.55;;;13.43;;
21519;SDS011;10921;53.614;9.882;2023-07-13T07:29:25;24.10;;;13.82;;
21519;SDS011;10921;53.614;9.882;2023-07-13T07:31:56;28.77;;;13.10;;
21519;SDS011;10921;53.614;9.882;2023-07-13T07:34:43;20.85;;;13.45;;
21519;SDS011;10921;53.614;9.882;2023-07-13T07:37:10;24.55;;;13.05;;
21519;SDS011;10921;53.614;9.882;2023-07-13T07:39:45;23.55;;;12.88;;
21519;SDS011;10921;53.614;9.882;2023-07-13T07:42:31;19.58;;;12.13;;
21519;SDS011;10921;53.614;9.882;2023-07-13T07:44:59;24.05;;;12.23;;
21519;SDS011;10921;53.614;9.882;2023-07-13T07:47:27;23.92;;;13.07;;
21519;SDS011;10921;53.614;9.882;2023-07-13T07:49:54;19.55;;;12.25;;
21519;SDS011;10921;53.614;9.882;2023-07-13T07:52:20;25.50;;;12.93;;
21519;SDS011;10921;53.614;9.882;2023-07-13T07:54:47;26.20;;;12.98;;
21519;SDS011;10921;53.614;9.882;2023-07-13T07:57:16;22.88;;;12.15;;
21519;SDS011;10921;53.614;9.882;2023-07-13T08:00:03;20.48;;;12.45;;
21519;SDS011;10921;53.614;9.882;2023-07-13T08:05:02;24.63;;;14.13;;
21519;SDS011;10921;53.614;9.882;2023-07-13T08:07:32;20.00;;;12.38;;
21519;SDS011;10921;53.614;9.882;2023-07-13T08:09:59;18.40;;;12.05;;
21519;SDS011;10921;53.614;9.882;2023-07-13T08:12:25;20.20;;;12.35;;
21519;SDS011;10921;53.614;9.882;2023-07-13T08:14:55;26.35;;;12.25;;
21519;SDS011;10921;53.614;9.882;2023-07-13T08:17:24;18.42;;;11.85;;
21519;SDS011;10921;53.614;9.882;2023-07-13T08:19:52;24.30;;;12.90;;
21519;SDS011;10921;53.614;9.882;2023-07-13T08:22:18;20.73;;;11.95;;
21519;SDS011;10921;53.614;9.882;2023-07-13T08:24:45;20.30;;;11.43;;
21519;SDS011;10921;53.614;9.882;2023-07-13T08:27:13;26.30;;;12.43;;
21519;SDS011;10921;53.614;9.882;2023-07-13T08:29:40;22.70;;;13.43;;
21519;SDS011;10921;53.614;9.882;2023-07-13T08:32:06;24.45;;;12.23;;
21519;SDS011;10921;53.614;9.882;2023-07-13T08:34:37;26.98;;;12.50;;
21519;SDS011;10921;53.614;9.882;2023-07-13T08:37:04;21.50;;;11.70;;
21519;SDS011;10921;53.614;9.882;2023-07-13T08:39:31;23.05;;;13.38;;
21519;SDS011;10921;53.614;9.882;2023-07-13T08:42:00;26.85;;;12.07;;
21519;SDS011;10921;53.614;9.882;2023-07-13T08:44:48;22.42;;;11.63;;
21519;SDS011;10921;53.614;9.882;2023-07-13T08:47:28;22.50;;;12.27;;
21519;SDS011;10921;53.614;9.882;2023-07-13T08:49:56;21.25;;;11.70;;
21519;SDS011;10921;53.614;9.882;2023-07-13T08:52:30;16.33;;;13.00;;
21519;SDS011;10921;53.614;9.882;2023-07-13T08:55:17;23.33;;;16.13;;
21519;SDS011;10921;53.614;9.882;2023-07-13T08:57:48;20.00;;;15.48;;
21519;SDS011;10921;53.614;9.882;2023-07-13T09:00:22;22.40;;;17.00;;
21519;SDS011;10921;53.614;9.882;2023-07-13T09:02:58;19.92;;;15.10;;
21519;SDS011;10921;53.614;9.882;2023-07-13T09:05:29;23.27;;;13.18;;
21519;SDS011;10921;53.614;9.882;2023-07-13T09:11:05;16.23;;;14.55;;
21519;SDS011;10921;53.614;9.882;2023-07-13T09:16:44;20.55;;;14.23;;
21519;SDS011;10921;53.614;9.882;2023-07-13T09:19:14;17.58;;;14.10;;
21519;SDS011;10921;53.614;9.882;2023-07-13T09:21:46;16.60;;;14.68;;
21519;SDS011;10921;53.614;9.882;2023-07-13T09:24:31;20.83;;;15.60;;
21519;SDS011;10921;53.614;9.882;2023-07-13T09:27:15;15.80;;;14.13;;
21519;SDS011;10921;53.614;9.882;2023-07-13T09:29:48;17.48;;;12.90;;
21519;SDS011;10921;53.614;9.882;2023-07-13T09:32:24;16.85;;;13.00;;
21519;SDS011;10921;53.614;9.882;2023-07-13T09:34:52;17.70;;;12.50;;
21519;SDS011;10921;53.614;9.882;2023-07-13T09:37:21;18.25;;;12.93;;
21519;SDS011;10921;53.614;9.882;2023-07-13T09:39:53;20.50;;;15.77;;
21519;SDS011;10921;53.614;9.882;2023-07-13T09:42:22;18.05;;;14.25;;
21519;SDS011;10921;53.614;9.882;2023-07-13T09:44:51;22.50;;;14.18;;
21519;SDS011;10921;53.614;9.882;2023-07-13T09:47:23;16.90;;;15.20;;
21519;SDS011;10921;53.614;9.882;2023-07-13T09:49:57;15.95;;;12.48;;
21519;SDS011;10921;53.614;9.882;2023-07-13T09:52:42;15.50;;;12.75;;
21519;SDS011;10921;53.614;9.882;2023-07-13T09:57:51;16.05;;;12.25;;
21519;SDS011;10921;53.614;9.882;2023-07-13T10:00:26;16.45;;;13.18;;
21519;SDS011;10921;53.614;9.882;2023-07-13T10:03:04;14.35;;;12.27;;
21519;SDS011;10921;53.614;9.882;2023-07-13T10:05:52;16.40;;;11.88;;
21519;SDS011;10921;53.614;9.882;2023-07-13T10:08:29;19.88;;;15.23;;
21519;SDS011;10921;53.614;9.882;2023-07-13T10:11:00;17.42;;;15.18;;
21519;SDS011;10921;53.614;9.882;2023-07-13T10:13:36;15.68;;;13.77;;
21519;SDS011;10921;53.614;9.882;2023-07-13T10:16:07;17.02;;;14.07;;
21519;SDS011;10921;53.614;9.882;2023-07-13T10:21:36;16.52;;;14.38;;
21519;SDS011;10921;53.614;9.882;2023-07-13T10:24:14;17.67;;;14.50;;
21519;SDS011;10921;53.614;9.882;2023-07-13T10:26:54;15.00;;;13.48;;
21519;SDS011;10921;53.614;9.882;2023-07-13T10:29:25;14.07;;;12.18;;
21519;SDS011;10921;53.614;9.882;2023-07-13T10:31:55;13.82;;;12.38;;
21519;SDS011;10921;53.614;9.882;2023-07-13T10:34:23;13.10;;;11.80;;
21519;SDS011;10921;53.614;9.882;2023-07-13T10:36:51;14.38;;;11.23;;
21519;SDS011;10921;53.614;9.882;2023-07-13T10:39:21;14.43;;;12.98;;
21519;SDS011;10921;53.614;9.882;2023-07-13T10:41:53;14.45;;;12.20;;
21519;SDS011;10921;53.614;9.882;2023-07-13T10:44:25;17.17;;;13.23;;
21519;SDS011;10921;53.614;9.882;2023-07-13T10:47:16;13.55;;;12.10;;
21519;SDS011;10921;53.614;9.882;2023-07-13T10:49:44;14.75;;;13.25;;
21519;SDS011;10921;53.614;9.882;2023-07-13T10:52:37;13.52;;;12.13;;
21519;SDS011;10921;53.614;9.882;2023-07-13T10:58:02;12.65;;;11.57;;
21519;SDS011;10921;53.614;9.882;2023-07-13T11:00:43;16.00;;;11.85;;
21519;SDS011;10921;53.614;9.882;2023-07-13T11:03:14;16.52;;;10.48;;
21519;SDS011;10921;53.614;9.882;2023-07-13T11:05:43;12.00;;;10.65;;
21519;SDS011;10921;53.614;9.882;2023-07-13T11:08:20;13.68;;;10.30;;
21519;SDS011;10921;53.614;9.882;2023-07-13T11:10:59;15.23;;;13.68;;
21519;SDS011;10921;53.614;9.882;2023-07-13T11:16:57;13.88;;;11.73;;
21519;SDS011;10921;53.614;9.882;2023-07-13T11:21:29;16.85;;;13.27;;
21519;SDS011;10921;53.614;9.882;2023-07-13T11:24:16;15.95;;;14.15;;
21519;SDS011;10921;53.614;9.882;2023-07-13T11:26:50;16.20;;;14.80;;
21519;SDS011;10921;53.614;9.882;2023-07-13T11:32:00;15.32;;;14.10;;
21519;SDS011;10921;53.614;9.882;2023-07-13T11:34:47;13.10;;;11.80;;
21519;SDS011;10921;53.614;9.882;2023-07-13T11:37:15;14.90;;;11.27;;
21519;SDS011;10921;53.614;9.882;2023-07-13T11:39:44;12.23;;;11.10;;
21519;SDS011;10921;53.614;9.882;2023-07-13T11:42:15;11.77;;;10.75;;
21519;SDS011;10921;53.614;9.882;2023-07-13T11:44:47;13.95;;;12.93;;
21519;SDS011;10921;53.614;9.882;2023-07-13T11:47:34;11.82;;;10.82;;
21519;SDS011;10921;53.614;9.882;2023-07-13T11:50:06;13.27;;;11.77;;
21519;SDS011;10921;53.614;9.882;2023-07-13T11:52:45;11.40;;;10.40;;
21519;SDS011;10921;53.614;9.882;2023-07-13T11:55:15;11.88;;;10.68;;
21519;SDS011;10921;53.614;9.882;2023-07-13T11:58:07;13.77;;;12.43;;
21519;SDS011;10921;53.614;9.882;2023-07-13T12:00:31;11.88;;;10.73;;
21519;SDS011;10921;53.614;9.882;2023-07-13T12:03:00;11.80;;;10.60;;
21519;SDS011;10921;53.614;9.882;2023-07-13T12:05:31;11.48;;;10.50;;
21519;SDS011;10921;53.614;9.882;2023-07-13T12:07:58;22.92;;;21.02;;
21519;SDS011;10921;53.614;9.882;2023-07-13T12:12:57;34.30;;;30.55;;
21519;SDS011;10921;53.614;9.882;2023-07-13T12:15:29;33.53;;;30.40;;
21519;SDS011;10921;53.614;9.882;2023-07-13T12:18:03;34.15;;;30.92;;
21519;SDS011;10921;53.614;9.882;2023-07-13T12:20:37;34.70;;;31.27;;
21519;SDS011;10921;53.614;9.882;2023-07-13T12:23:05;34.40;;;31.08;;
21519;SDS011;10921;53.614;9.882;2023-07-13T12:25:41;32.67;;;29.77;;
21519;SDS011;10921;53.614;9.882;2023-07-13T12:28:55;33.00;;;30.00;;
21519;SDS011;10921;53.614;9.882;2023-07-13T12:31:00;36.95;;;33.60;;
21519;SDS011;10921;53.614;9.882;2023-07-13T12:33:30;39.40;;;35.53;;
21519;SDS011;10921;53.614;9.882;2023-07-13T12:36:02;41.40;;;37.38;;
21519;SDS011;10921;53.614;9.882;2023-07-13T12:38:31;41.35;;;36.92;;
21519;SDS011;10921;53.614;9.882;2023-07-13T12:40:59;41.38;;;37.35;;
21519;SDS011;10921;53.614;9.882;2023-07-13T12:43:28;37.40;;;33.22;;
21519;SDS011;10921;53.614;9.882;2023-07-13T12:48:53;28.92;;;26.42;;
21519;SDS011;10921;53.614;9.882;2023-07-13T12:51:40;29.02;;;25.98;;
21519;SDS011;10921;53.614;9.882;2023-07-13T12:54:13;27.42;;;24.92;;
21519;SDS011;10921;53.614;9.882;2023-07-13T12:56:43;22.42;;;20.25;;
21519;SDS011;10921;53.614;9.882;2023-07-13T12:59:15;20.08;;;18.38;;
21519;SDS011;10921;53.614;9.882;2023-07-13T13:01:45;20.67;;;18.60;;
21519;SDS011;10921;53.614;9.882;2023-07-13T13:04:13;21.00;;;19.17;;
21519;SDS011;10921;53.614;9.882;2023-07-13T13:06:40;22.00;;;20.13;;
21519;SDS011;10921;53.614;9.882;2023-07-13T13:09:12;20.95;;;19.25;;
21519;SDS011;10921;53.614;9.882;2023-07-13T13:11:40;20.15;;;18.40;;
21519;SDS011;10921;53.614;9.882;2023-07-13T13:14:08;19.60;;;17.98;;
21519;SDS011;10921;53.614;9.882;2023-07-13T13:16:37;20.85;;;19.15;;
21519;SDS011;10921;53.614;9.882;2023-07-13T13:19:16;19.77;;;18.17;;
21519;SDS011;10921;53.614;9.882;2023-07-13T13:21:54;18.42;;;16.90;;
21519;SDS011;10921;53.614;9.882;2023-07-13T13:24:23;19.17;;;17.35;;
21519;SDS011;10921;53.614;9.882;2023-07-13T13:26:53;16.17;;;14.77;;
21519;SDS011;10921;53.614;9.882;2023-07-13T13:29:21;16.17;;;14.88;;
21519;SDS011;10921;53.614;9.882;2023-07-13T13:31:54;16.67;;;15.40;;
21519;SDS011;10921;53.614;9.882;2023-07-13T13:34:22;18.40;;;17.00;;
21519;SDS011;10921;53.614;9.882;2023-07-13T13:36:50;17.10;;;15.70;;
21519;SDS011;10921;53.614;9.882;2023-07-13T13:39:22;18.75;;;17.15;;
21519;SDS011;10921;53.614;9.882;2023-07-13T13:41:51;17.33;;;15.73;;
21519;SDS011;10921;53.614;9.882;2023-07-13T13:44:19;16.48;;;15.00;;
21519;SDS011;10921;53.614;9.882;2023-07-13T13:46:47;14.82;;;13.52;;
21519;SDS011;10921;53.614;9.882;2023-07-13T13:49:17;13.90;;;12.77;;
21519;SDS011;10921;53.614;9.882;2023-07-13T13:51:46;14.20;;;13.07;;
21519;SDS011;10921;53.614;9.882;2023-07-13T13:54:13;13.60;;;12.50;;
21519;SDS011;10921;53.614;9.882;2023-07-13T13:56:44;14.48;;;13.10;;
21519;SDS011;10921;53.614;9.882;2023-07-13T13:59:12;14.40;;;13.20;;
21519;SDS011;10921;53.614;9.882;2023-07-13T14:01:39;16.38;;;15.07;;
21519;SDS011;10921;53.614;9.882;2023-07-13T14:04:08;15.77;;;14.32;;
21519;SDS011;10921;53.614;9.882;2023-07-13T14:06:41;15.43;;;14.30;;
21519;SDS011;10921;53.614;9.882;2023-07-13T14:09:09;16.25;;;14.95;;
21519;SDS011;10921;53.614;9.882;2023-07-13T14:11:37;14.73;;;13.65;;
21519;SDS011;10921;53.614;9.882;2023-07-13T14:14:04;15.98;;;14.57;;
21519;SDS011;10921;53.614;9.882;2023-07-13T14:16:31;12.60;;;11.60;;
21519;SDS011;10921;53.614;9.882;2023-07-13T14:19:00;14.10;;;12.90;;
21519;SDS011;10921;53.614;9.882;2023-07-13T14:21:27;13.25;;;11.93;;
21519;SDS011;10921;53.614;9.882;2023-07-13T14:23:55;12.93;;;11.80;;
21519;SDS011;10921;53.614;9.882;2023-07-13T14:26:22;12.90;;;11.80;;
21519;SDS011;10921;53.614;9.882;2023-07-13T14:28:52;13.80;;;12.80;;
21519;SDS011;10921;53.614;9.882;2023-07-13T14:31:24;13.23;;;12.23;;
21519;SDS011;10921;53.614;9.882;2023-07-13T14:33:56;13.30;;;12.20;;
21519;SDS011;10921;53.614;9.882;2023-07-13T14:36:30;12.98;;;11.90;;
21519;SDS011;10921;53.614;9.882;2023-07-13T14:38:59;13.25;;;12.02;;
21519;SDS011;10921;53.614;9.882;2023-07-13T14:41:32;16.02;;;12.45;;
21519;SDS011;10921;53.614;9.882;2023-07-13T14:43:59;13.55;;;12.45;;
21519;SDS011;10921;53.614;9.882;2023-07-13T14:46:30;14.25;;;13.05;;
21519;SDS011;10921;53.614;9.882;2023-07-13T14:52:00;13.43;;;12.32;;
21519;SDS011;10921;53.614;9.882;2023-07-13T14:54:30;13.85;;;12.77;;
21519;SDS011;10921;53.614;9.882;2023-07-13T14:56:56;13.60;;;12.30;;
21519;SDS011;10921;53.614;9.882;2023-07-13T14:59:23;13.27;;;12.13;;
21519;SDS011;10921;53.614;9.882;2023-07-13T15:01:50;13.50;;;12.20;;
21519;SDS011;10921;53.614;9.882;2023-07-13T15:04:17;13.63;;;11.98;;
21519;SDS011;10921;53.614;9.882;2023-07-13T15:07:18;14.25;;;13.05;;
21519;SDS011;10921;53.614;9.882;2023-07-13T15:09:39;13.95;;;12.23;;
21519;SDS011;10921;53.614;9.882;2023-07-13T15:12:06;14.23;;;12.93;;
21519;SDS011;10921;53.614;9.882;2023-07-13T15:14:33;15.02;;;13.82;;